createdAt,value
2019-04-04T00:00:58.086Z,11.90
2019-04-04T00:03:26.507Z,12.93
2019-04-04T00:05:55.078Z,12.70
2019-04-04T00:08:30.757Z,13.00
2019-04-04T00:10:58.078Z,13.43
2019-04-04T00:13:26.476Z,12.93
2019-04-04T00:15:54.907Z,11.90
2019-04-04T00:18:23.323Z,12.45
2019-04-04T00:20:51.731Z,12.18
2019-04-04T00:23:20.196Z,13.48
2019-04-04T00:25:48.598Z,13.50
2019-04-04T00:28:17.028Z,12.70
2019-04-04T00:30:48.261Z,13.83
2019-04-04T00:33:15.583Z,12.58
2019-04-04T00:35:44.000Z,13.20
2019-04-04T00:38:12.410Z,14.47
2019-04-04T00:40:41.971Z,14.80
2019-04-04T00:43:10.926Z,14.03
2019-04-04T00:45:39.398Z,14.75
2019-04-04T00:48:07.846Z,14.23
2019-04-04T00:50:37.347Z,15.70
2019-04-04T00:53:05.798Z,16.45
2019-04-04T00:55:34.233Z,15.65
2019-04-04T00:58:02.632Z,15.58
2019-04-04T01:00:31.035Z,17.17
2019-04-04T01:02:59.469Z,17.42
2019-04-04T01:05:27.858Z,17.10
2019-04-04T01:07:56.259Z,18.52
2019-04-04T01:10:24.685Z,17.60
2019-04-04T01:12:53.101Z,18.62
2019-04-04T01:15:21.514Z,17.30
2019-04-04T01:17:50.006Z,17.42
2019-04-04T01:20:20.349Z,17.48
2019-04-04T01:22:48.775Z,17.35
2019-04-04T01:25:17.187Z,16.35
2019-04-04T01:27:45.619Z,17.98
2019-04-04T01:30:14.374Z,17.48
2019-04-04T01:32:42.798Z,18.25
2019-04-04T01:35:11.646Z,18.10
2019-04-04T01:37:40.059Z,18.15
2019-04-04T01:40:08.950Z,18.80
2019-04-04T01:42:38.717Z,18.12
2019-04-04T01:45:08.522Z,19.70
2019-04-04T01:47:36.938Z,18.92
2019-04-04T01:50:06.898Z,20.17
2019-04-04T01:52:35.290Z,20.02
2019-04-04T01:55:04.398Z,20.45
2019-04-04T01:57:32.798Z,20.40
2019-04-04T02:00:01.568Z,20.25
2019-04-04T02:02:29.987Z,19.73
2019-04-04T02:05:01.342Z,21.40
2019-04-04T02:07:30.432Z,20.50
2019-04-04T02:09:58.934Z,21.15
2019-04-04T02:12:27.369Z,22.62
2019-04-04T02:14:55.762Z,23.07
2019-04-04T02:17:24.205Z,23.92
2019-04-04T02:19:55.585Z,23.35
2019-04-04T02:22:22.791Z,23.02
2019-04-04T02:24:51.202Z,22.73
2019-04-04T02:27:19.634Z,22.40
2019-04-04T02:29:48.062Z,21.27
2019-04-04T02:32:18.106Z,21.87
2019-04-04T02:34:46.526Z,22.87
2019-04-04T02:37:14.959Z,23.77
2019-04-04T02:39:43.726Z,24.40
2019-04-04T02:42:12.174Z,23.00
2019-04-04T02:44:40.666Z,23.60
2019-04-04T02:47:09.610Z,22.55
2019-04-04T02:49:38.011Z,21.85
2019-04-04T02:52:06.450Z,23.75
2019-04-04T02:54:34.874Z,23.05
2019-04-04T02:57:09.210Z,21.27
2019-04-04T02:59:35.830Z,22.00
2019-04-04T03:02:05.755Z,21.65
2019-04-04T03:04:34.516Z,21.00
2019-04-04T03:07:02.908Z,21.37
2019-04-04T03:09:31.321Z,21.95
2019-04-04T03:11:59.731Z,20.40
2019-04-04T03:14:28.530Z,20.68
2019-04-04T03:16:57.907Z,20.23
2019-04-04T03:19:26.390Z,21.07
2019-04-04T03:21:56.028Z,22.60
2019-04-04T03:24:24.786Z,22.77
2019-04-04T03:26:56.186Z,22.58
2019-04-04T03:29:24.584Z,22.80
2019-04-04T03:31:53.827Z,22.80
2019-04-04T03:34:22.258Z,23.15
2019-04-04T03:36:50.678Z,22.55
2019-04-04T03:39:19.702Z,22.73
2019-04-04T03:41:49.005Z,22.82
2019-04-04T03:44:19.585Z,22.40
2019-04-04T03:46:47.645Z,23.73
2019-04-04T03:49:16.047Z,23.50
2019-04-04T03:51:44.461Z,22.48
2019-04-04T03:54:14.627Z,23.45
2019-04-04T03:56:43.067Z,22.00
2019-04-04T03:59:11.480Z,21.68
2019-04-04T04:01:39.882Z,23.70
2019-04-04T04:04:08.302Z,22.95
2019-04-04T04:06:41.314Z,22.02
2019-04-04T04:09:06.888Z,22.22
2019-04-04T04:11:37.606Z,21.33
2019-04-04T04:14:05.501Z,22.15
2019-04-04T04:16:35.909Z,20.92
2019-04-04T04:19:04.221Z,20.10
2019-04-04T04:21:32.623Z,20.50
2019-04-04T04:24:01.085Z,21.05
2019-04-04T04:26:30.190Z,21.30
2019-04-04T04:28:58.603Z,22.85
2019-04-04T04:31:27.051Z,24.98
2019-04-04T04:33:55.470Z,22.05
2019-04-04T04:36:23.887Z,22.52
2019-04-04T04:38:52.290Z,23.02
2019-04-04T04:41:21.390Z,20.88
2019-04-04T04:43:49.885Z,21.15
2019-04-04T04:46:19.902Z,21.10
2019-04-04T04:48:48.310Z,19.62
2019-04-04T04:51:16.736Z,20.50
2019-04-04T04:53:45.158Z,20.40
2019-04-04T04:56:13.552Z,20.00
2019-04-04T04:58:42.672Z,19.77
2019-04-04T05:01:11.203Z,19.65
2019-04-04T05:03:39.595Z,19.77
2019-04-04T05:06:08.942Z,20.57
2019-04-04T05:08:40.734Z,19.67
2019-04-04T05:11:07.538Z,20.57
2019-04-04T05:13:35.955Z,20.05
2019-04-04T05:16:08.609Z,19.70
2019-04-04T05:18:34.762Z,19.27
2019-04-04T05:21:03.390Z,18.82
2019-04-04T05:23:31.838Z,17.87
2019-04-04T05:26:03.153Z,17.50
2019-04-04T05:28:30.404Z,18.62
2019-04-04T05:30:59.274Z,19.30
2019-04-04T05:33:28.475Z,18.65
2019-04-04T05:35:57.942Z,17.65
2019-04-04T05:38:26.374Z,17.57
2019-04-04T05:40:55.314Z,19.45
2019-04-04T05:43:24.645Z,18.37
2019-04-04T05:45:53.102Z,18.12
2019-04-04T05:48:21.498Z,18.50
2019-04-04T05:50:49.975Z,18.27
2019-04-04T05:53:21.280Z,17.90
2019-04-04T05:55:48.549Z,18.70
2019-04-04T05:58:17.064Z,19.42
2019-04-04T06:00:46.628Z,20.85
2019-04-04T06:03:15.822Z,20.90
2019-04-04T06:05:44.446Z,20.90
2019-04-04T06:08:13.302Z,19.00
2019-04-04T06:10:41.711Z,18.00
2019-04-04T06:13:10.159Z,18.67
2019-04-04T06:15:38.573Z,18.67
2019-04-04T06:18:06.975Z,19.62
2019-04-04T06:20:35.405Z,17.87
2019-04-04T06:23:03.836Z,19.60
2019-04-04T06:25:35.574Z,18.98
2019-04-04T06:28:02.527Z,18.23
2019-04-04T06:30:42.696Z,17.80
2019-04-04T06:33:03.895Z,19.17
2019-04-04T06:35:31.234Z,16.95
2019-04-04T06:37:59.671Z,15.72
2019-04-04T06:40:30.228Z,15.30
2019-04-04T06:42:58.623Z,14.93
2019-04-04T06:45:29.576Z,14.70
2019-04-04T06:47:57.600Z,13.55
2019-04-04T06:50:26.667Z,13.25
2019-04-04T06:52:56.501Z,12.88
2019-04-04T06:55:28.451Z,13.00
2019-04-04T06:57:55.352Z,12.53
2019-04-04T07:00:23.790Z,13.70
2019-04-04T07:02:55.014Z,12.75
2019-04-04T07:05:22.331Z,13.45
2019-04-04T07:07:50.902Z,12.20
2019-04-04T07:10:21.734Z,11.85
2019-04-04T07:12:49.899Z,11.88
2019-04-04T07:15:18.507Z,11.68
2019-04-04T07:17:46.930Z,11.20
2019-04-04T07:20:17.023Z,11.20
2019-04-04T07:22:45.678Z,11.12
2019-04-04T07:25:14.142Z,10.43
2019-04-04T07:27:42.575Z,10.63
2019-04-04T07:30:11.318Z,10.82
2019-04-04T07:32:41.592Z,10.93
2019-04-04T07:35:10.294Z,11.18
2019-04-04T07:37:39.184Z,11.63
2019-04-04T07:40:07.783Z,11.48
2019-04-04T07:42:36.220Z,10.53
2019-04-04T07:45:06.650Z,11.35
2019-04-04T07:47:35.158Z,11.60
2019-04-04T07:50:04.203Z,12.10
2019-04-04T07:52:33.152Z,11.18
2019-04-04T07:55:02.142Z,11.70
2019-04-04T07:57:30.562Z,9.58
2019-04-04T07:59:59.133Z,9.60
2019-04-04T08:02:27.554Z,10.08
2019-04-04T08:04:55.987Z,9.58
2019-04-04T08:07:24.447Z,9.68
2019-04-04T08:09:52.879Z,10.63
2019-04-04T08:12:21.298Z,10.60
2019-04-04T08:14:49.747Z,10.08
2019-04-04T08:17:18.974Z,10.48
2019-04-04T08:19:59.186Z,10.18
2019-04-04T08:22:18.169Z,10.18
2019-04-04T08:24:46.623Z,10.43
2019-04-04T08:27:15.063Z,10.70
2019-04-04T08:29:43.490Z,10.48
2019-04-04T08:32:12.306Z,10.58
2019-04-04T08:34:40.913Z,10.93
2019-04-04T08:37:10.069Z,10.95
2019-04-04T08:39:38.473Z,10.63
2019-04-04T08:42:06.923Z,11.55
2019-04-04T08:44:35.334Z,11.97
2019-04-04T08:47:03.910Z,12.65
2019-04-04T08:49:32.338Z,11.55
2019-04-04T08:52:00.773Z,12.68
2019-04-04T08:54:29.194Z,13.80
2019-04-04T08:56:57.605Z,12.15
2019-04-04T08:59:26.035Z,12.70
2019-04-04T09:01:54.458Z,13.70
2019-04-04T09:04:24.224Z,13.03
2019-04-04T09:06:52.819Z,12.75
2019-04-04T09:09:21.260Z,12.88
2019-04-04T09:11:49.871Z,12.03
2019-04-04T09:14:18.316Z,12.65
2019-04-04T09:16:46.714Z,13.03
2019-04-04T09:19:15.146Z,13.72
2019-04-04T09:21:43.551Z,12.82
2019-04-04T09:24:11.942Z,12.20
2019-04-04T09:26:40.376Z,12.20
2019-04-04T09:29:08.770Z,11.90
2019-04-04T09:31:37.181Z,11.25
2019-04-04T09:34:05.610Z,10.80
2019-04-04T09:36:34.037Z,10.80
2019-04-04T09:39:03.601Z,11.12
2019-04-04T09:41:32.007Z,11.68
2019-04-04T09:44:00.435Z,11.08
2019-04-04T09:46:28.934Z,10.43
2019-04-04T09:48:58.894Z,11.03
2019-04-04T09:51:27.311Z,11.63
2019-04-04T09:53:55.768Z,10.70
2019-04-04T09:56:24.203Z,11.00
2019-04-04T09:58:54.872Z,10.50
2019-04-04T10:01:22.742Z,10.55
2019-04-04T10:03:51.167Z,10.50
2019-04-04T10:06:22.322Z,10.05
2019-04-04T10:08:50.734Z,11.08
2019-04-04T10:11:19.149Z,11.43
2019-04-04T10:13:47.587Z,10.45
2019-04-04T10:16:17.546Z,10.50
2019-04-04T10:18:45.980Z,10.13
2019-04-04T10:21:14.386Z,9.93
2019-04-04T10:23:42.826Z,8.83
2019-04-04T10:26:12.541Z,8.60
2019-04-04T10:28:40.965Z,8.58
2019-04-04T10:31:09.382Z,7.75
2019-04-04T10:33:37.823Z,7.80
2019-04-04T10:36:06.226Z,8.05
2019-04-04T10:38:34.623Z,8.13
2019-04-04T10:41:03.051Z,8.78
2019-04-04T10:43:31.468Z,7.87
2019-04-04T10:45:59.934Z,8.05
2019-04-04T10:48:28.342Z,8.90
2019-04-04T10:50:56.778Z,8.80
2019-04-04T10:53:25.175Z,8.78
2019-04-04T10:55:53.610Z,8.45
2019-04-04T10:58:22.015Z,7.85
2019-04-04T11:00:50.403Z,8.78
2019-04-04T11:03:18.884Z,8.03
2019-04-04T11:05:47.286Z,8.60
2019-04-04T11:08:18.402Z,8.33
2019-04-04T11:10:46.803Z,8.20
2019-04-04T11:13:15.222Z,7.67
2019-04-04T11:15:43.638Z,8.58
2019-04-04T11:18:12.084Z,7.67
2019-04-04T11:20:40.575Z,8.10
2019-04-04T11:23:09.032Z,6.92
2019-04-04T11:25:37.558Z,6.78
2019-04-04T11:28:05.985Z,6.90
2019-04-04T11:30:34.379Z,7.72
2019-04-04T11:33:02.782Z,7.87
2019-04-04T11:35:31.214Z,7.92
2019-04-04T11:37:59.606Z,8.53
2019-04-04T11:40:28.041Z,8.08
2019-04-04T11:42:56.462Z,7.75
2019-04-04T11:45:24.854Z,8.23
2019-04-04T11:47:53.281Z,7.87
2019-04-04T11:50:21.706Z,8.20
2019-04-04T11:52:50.140Z,7.72
2019-04-04T11:55:18.561Z,7.67
2019-04-04T11:57:47.003Z,8.38
2019-04-04T12:00:17.247Z,7.95
2019-04-04T12:02:45.664Z,8.20
2019-04-04T12:05:14.070Z,7.37
2019-04-04T12:07:42.471Z,8.58
2019-04-04T12:10:11.435Z,7.60
2019-04-04T12:12:39.893Z,8.73
2019-04-04T12:15:09.010Z,7.42
2019-04-04T12:17:37.434Z,6.92
2019-04-04T12:20:06.994Z,6.40
2019-04-04T12:22:35.398Z,7.53
2019-04-04T12:25:04.476Z,7.53
2019-04-04T12:27:33.178Z,8.43
2019-04-04T12:30:01.606Z,6.10
2019-04-04T12:32:30.023Z,6.15
2019-04-04T12:34:58.822Z,7.78
2019-04-04T12:37:27.244Z,7.90
2019-04-04T12:39:55.651Z,8.08
2019-04-04T12:42:24.093Z,8.00
2019-04-04T12:44:52.496Z,7.55
2019-04-04T12:47:20.909Z,7.10
2019-04-04T12:49:49.320Z,7.53
2019-04-04T12:52:17.773Z,7.83
2019-04-04T12:54:46.199Z,7.67
2019-04-04T12:57:14.622Z,7.53
2019-04-04T12:59:43.103Z,8.00
2019-04-04T13:02:11.533Z,7.65
2019-04-04T13:04:39.960Z,7.17
2019-04-04T13:07:08.390Z,4.65
2019-04-04T13:09:36.779Z,7.20
2019-04-04T13:12:05.446Z,7.55
2019-04-04T13:14:33.882Z,7.72
2019-04-04T13:17:02.282Z,7.58
2019-04-04T13:19:30.690Z,7.05
2019-04-04T13:21:59.095Z,7.62
2019-04-04T13:24:27.555Z,8.25
2019-04-04T13:26:56.442Z,7.17
2019-04-04T13:29:24.875Z,5.67
2019-04-04T13:31:53.766Z,6.28
2019-04-04T13:34:22.162Z,7.12
2019-04-04T13:36:50.586Z,7.22
2019-04-04T13:39:18.982Z,5.83
2019-04-04T13:41:47.446Z,6.00
2019-04-04T13:44:15.853Z,6.65
2019-04-04T13:46:44.252Z,6.80
2019-04-04T13:49:12.656Z,6.80
2019-04-04T13:51:41.125Z,6.70
2019-04-04T13:54:09.565Z,6.65
2019-04-04T13:56:37.956Z,6.45
2019-04-04T13:59:06.387Z,6.33
2019-04-04T14:01:34.831Z,6.05
2019-04-04T14:04:03.321Z,6.28
2019-04-04T14:06:31.721Z,6.58
2019-04-04T14:09:00.124Z,6.45
2019-04-04T14:11:29.493Z,6.15
2019-04-04T14:13:58.877Z,6.58
2019-04-04T14:16:27.477Z,6.03
2019-04-04T14:18:55.883Z,6.37
2019-04-04T14:21:24.286Z,6.40
2019-04-04T14:23:53.554Z,5.20
2019-04-04T14:26:22.631Z,6.12
2019-04-04T14:28:51.039Z,6.60
2019-04-04T14:31:19.490Z,7.08
2019-04-04T14:33:48.041Z,6.70
2019-04-04T14:36:19.962Z,6.70
2019-04-04T14:38:48.557Z,6.78
2019-04-04T14:41:16.968Z,6.65
2019-04-04T14:43:45.368Z,6.17
2019-04-04T14:46:13.818Z,6.22
2019-04-04T14:48:43.118Z,6.35
2019-04-04T14:51:11.688Z,5.67
2019-04-04T14:53:40.103Z,6.42
2019-04-04T14:58:42.658Z,6.43
2019-04-04T15:01:11.059Z,7.50
2019-04-04T15:03:42.067Z,7.50
2019-04-04T15:06:09.638Z,7.42
2019-04-04T15:08:38.063Z,6.72
2019-04-04T15:11:06.455Z,7.20
2019-04-04T15:13:35.071Z,7.75
2019-04-04T15:16:09.462Z,7.15
2019-04-04T15:18:36.665Z,7.60
2019-04-04T15:21:05.087Z,8.38
2019-04-04T15:23:33.686Z,8.33
2019-04-04T15:26:02.098Z,8.25
2019-04-04T15:28:30.672Z,8.03
2019-04-04T15:30:59.102Z,8.43
2019-04-04T15:33:27.531Z,9.18
2019-04-04T15:35:55.946Z,9.40
2019-04-04T15:38:24.359Z,9.03
2019-04-04T15:40:53.222Z,8.90
2019-04-04T15:43:21.615Z,9.95
2019-04-04T15:45:50.049Z,10.08
2019-04-04T15:48:18.477Z,10.03
2019-04-04T15:50:46.985Z,9.83
2019-04-04T15:53:18.190Z,9.70
2019-04-04T15:55:46.617Z,9.53
2019-04-04T15:58:15.023Z,10.20
2019-04-04T16:00:43.468Z,10.58
2019-04-04T16:03:11.884Z,9.98
2019-04-04T16:05:40.295Z,10.20
2019-04-04T16:08:08.799Z,9.70
2019-04-04T16:10:37.211Z,9.03
2019-04-04T16:13:05.619Z,9.63
2019-04-04T16:15:34.081Z,9.50
2019-04-04T16:18:02.556Z,9.88
2019-04-04T16:20:30.982Z,9.00
2019-04-04T16:22:59.404Z,9.55
2019-04-04T16:25:27.976Z,9.25
2019-04-04T16:27:56.370Z,9.15
2019-04-04T16:30:24.813Z,9.48
2019-04-04T16:32:53.223Z,9.20
2019-04-04T16:35:21.650Z,8.65
2019-04-04T16:37:50.046Z,9.88
2019-04-04T16:40:20.156Z,9.33
2019-04-04T16:42:48.588Z,9.25
2019-04-04T16:45:17.019Z,9.58
2019-04-04T16:47:45.443Z,9.13
2019-04-04T16:50:14.506Z,10.13
2019-04-04T16:52:42.998Z,9.03
2019-04-04T16:55:11.530Z,9.63
2019-04-04T16:57:39.946Z,8.63
2019-04-04T17:00:11.158Z,9.05
2019-04-04T17:02:39.570Z,9.60
2019-04-04T17:05:10.817Z,9.33
2019-04-04T17:07:38.354Z,9.45
2019-04-04T17:10:09.223Z,9.08
2019-04-04T17:12:37.621Z,9.33
2019-04-04T17:15:07.763Z,8.80
2019-04-04T17:17:36.165Z,9.85
2019-04-04T17:20:06.519Z,9.40
2019-04-04T17:22:34.919Z,9.88
2019-04-04T17:25:03.488Z,10.13
2019-04-04T17:27:31.916Z,10.18
2019-04-04T17:30:00.349Z,10.38
2019-04-04T17:32:28.804Z,10.18
2019-04-04T17:34:57.254Z,10.60
2019-04-04T17:37:25.643Z,11.15
2019-04-04T17:39:54.571Z,9.98
2019-04-04T17:42:30.331Z,10.98
2019-04-04T17:44:53.586Z,10.65
2019-04-04T17:47:22.570Z,11.22
2019-04-04T17:49:51.498Z,10.30
2019-04-04T17:52:19.947Z,10.75
2019-04-04T17:54:48.747Z,11.12
2019-04-04T17:57:17.205Z,11.50
2019-04-04T17:59:45.620Z,11.10
2019-04-04T18:02:14.026Z,10.72
2019-04-04T18:04:48.307Z,11.48
2019-04-04T18:07:12.678Z,11.12
2019-04-04T18:09:41.074Z,11.45
2019-04-04T18:12:09.475Z,11.03
2019-04-04T18:14:38.268Z,11.63
2019-04-04T18:17:06.699Z,10.38
2019-04-04T18:19:35.109Z,10.45
2019-04-04T18:22:03.544Z,10.48
2019-04-04T18:24:32.011Z,10.68
2019-04-04T18:27:00.419Z,10.95
2019-04-04T18:29:28.818Z,10.95
2019-04-04T18:31:57.299Z,9.85
2019-04-04T18:34:25.914Z,11.70
2019-04-04T18:36:54.442Z,10.28
2019-04-04T18:39:22.835Z,10.55
2019-04-04T18:41:51.234Z,9.85
2019-04-04T18:44:19.657Z,10.38
2019-04-04T18:46:48.078Z,10.78
2019-04-04T18:49:17.722Z,11.05
2019-04-04T18:51:46.184Z,10.13
2019-04-04T18:54:14.599Z,12.75
2019-04-04T18:56:43.002Z,11.45
2019-04-04T18:59:11.436Z,10.35
2019-04-04T19:01:39.834Z,10.50
2019-04-04T19:04:08.258Z,10.68
2019-04-04T19:06:36.736Z,11.60
2019-04-04T19:09:14.753Z,11.22
2019-04-04T19:11:39.545Z,11.90
2019-04-04T19:14:07.954Z,11.53
2019-04-04T19:16:36.370Z,11.48
2019-04-04T19:19:05.114Z,12.23
2019-04-04T19:21:33.506Z,11.80
2019-04-04T19:24:01.942Z,12.18
2019-04-04T19:26:30.515Z,12.25
2019-04-04T19:28:58.911Z,12.70
2019-04-04T19:31:27.356Z,12.13
2019-04-04T19:33:55.762Z,13.25
2019-04-04T19:36:24.159Z,12.93
2019-04-04T19:38:52.566Z,14.47
2019-04-04T19:41:20.999Z,14.45
2019-04-04T19:43:49.466Z,14.20
2019-04-04T19:46:36.293Z,14.43
2019-04-04T19:48:53.823Z,14.78
2019-04-04T19:51:22.251Z,16.12
2019-04-04T19:53:50.654Z,17.30
2019-04-04T19:56:24.486Z,17.20
2019-04-04T19:58:52.897Z,17.90
2019-04-04T20:01:21.333Z,17.67
2019-04-04T20:03:49.742Z,18.25
2019-04-04T20:06:21.231Z,18.92
2019-04-04T20:08:53.297Z,19.07
2019-04-04T20:11:19.838Z,18.65
2019-04-04T20:13:48.298Z,19.92
2019-04-04T20:16:22.592Z,19.52
2019-04-04T20:18:51.039Z,20.00
2019-04-04T20:21:19.420Z,20.05
2019-04-04T20:23:47.839Z,20.75
2019-04-04T20:26:25.316Z,19.65
2019-04-04T20:28:53.724Z,19.40
2019-04-04T20:31:22.147Z,19.75
2019-04-04T20:34:00.919Z,22.85
2019-04-04T20:36:23.373Z,17.98
2019-04-04T20:38:51.828Z,16.77
2019-04-04T20:41:20.292Z,17.07
2019-04-04T20:43:48.709Z,17.67
2019-04-04T20:46:22.812Z,17.23
2019-04-04T20:48:51.211Z,15.67
2019-04-04T20:51:19.646Z,15.95
2019-04-04T20:53:48.050Z,16.32
2019-04-04T20:56:16.489Z,16.25
2019-04-04T20:58:44.921Z,15.23
2019-04-04T21:01:13.359Z,15.60
2019-04-04T21:03:41.904Z,15.98
2019-04-04T21:06:10.322Z,16.12
2019-04-04T21:08:39.130Z,14.90
2019-04-04T21:11:07.558Z,16.55
2019-04-04T21:13:35.991Z,15.50
2019-04-04T21:16:04.402Z,15.68
2019-04-04T21:18:32.828Z,15.28
2019-04-04T21:21:01.250Z,15.43
2019-04-04T21:23:29.692Z,15.70
2019-04-04T21:25:58.133Z,15.43
2019-04-04T21:28:26.546Z,15.40
2019-04-04T21:30:54.947Z,15.95
2019-04-04T21:33:23.383Z,15.80
2019-04-04T21:35:51.776Z,16.52
2019-04-04T21:38:20.210Z,16.52
2019-04-04T21:40:48.610Z,16.15
2019-04-04T21:43:17.119Z,16.10
2019-04-04T21:45:45.550Z,16.07
2019-04-04T21:48:13.976Z,16.82
2019-04-04T21:50:42.422Z,16.50
2019-04-04T21:53:10.848Z,18.57
2019-04-04T21:55:39.290Z,19.40
2019-04-04T21:58:07.720Z,19.07
2019-04-04T22:00:37.870Z,19.02
2019-04-04T22:03:06.292Z,18.62
2019-04-04T22:05:34.694Z,19.35
2019-04-04T22:08:03.094Z,19.82
2019-04-04T22:10:31.559Z,19.45
2019-04-04T22:12:59.978Z,20.55
2019-04-04T22:15:28.451Z,20.17
2019-04-04T22:17:56.835Z,18.48
2019-04-04T22:20:25.258Z,20.08
2019-04-04T22:22:53.699Z,19.37
2019-04-04T22:25:22.123Z,19.37
2019-04-04T22:27:50.592Z,19.40
2019-04-04T22:30:19.305Z,18.70
2019-04-04T22:32:47.691Z,20.35
2019-04-04T22:35:16.290Z,20.60
2019-04-04T22:37:44.706Z,19.92
2019-04-04T22:40:13.457Z,20.92
2019-04-04T22:42:41.843Z,22.02
2019-04-04T22:45:14.551Z,21.62
2019-04-04T22:47:43.167Z,20.45
2019-04-04T22:50:11.830Z,23.07
2019-04-04T22:52:40.256Z,20.70
2019-04-04T22:55:08.887Z,21.60
2019-04-04T22:57:37.291Z,21.15
2019-04-04T23:00:08.146Z,21.62
2019-04-04T23:02:36.540Z,22.07
2019-04-04T23:05:05.839Z,21.20
2019-04-04T23:07:34.314Z,22.20
2019-04-04T23:10:02.911Z,22.32
2019-04-04T23:12:31.354Z,22.65
2019-04-04T23:14:59.773Z,21.68
2019-04-04T23:17:28.307Z,21.70
2019-04-04T23:19:56.727Z,21.23
2019-04-04T23:22:25.150Z,21.48
2019-04-04T23:24:53.579Z,21.50
2019-04-04T23:27:21.984Z,20.97
2019-04-04T23:29:50.447Z,20.85
2019-04-04T23:32:18.892Z,20.27
2019-04-04T23:34:47.399Z,19.15
2019-04-04T23:37:15.827Z,18.70
2019-04-04T23:39:44.218Z,19.42
2019-04-04T23:42:12.662Z,19.15
2019-04-04T23:44:41.070Z,18.45
2019-04-04T23:47:09.510Z,18.55
2019-04-04T23:49:37.927Z,17.82
2019-04-04T23:52:06.339Z,18.02
2019-04-04T23:54:34.796Z,18.77
2019-04-04T23:57:03.236Z,17.82
2019-04-04T23:59:31.696Z,19.82
